sensor_id;sensor_type;location;lat;lon;timestamp;P1;durP1;ratioP1;P2;durP2;ratioP2
57947;SDS011;43754;56.992;24.292;2022-09-16T00:00:28;6.38;;;1.92;;
57947;SDS011;43754;56.992;24.292;2022-09-16T00:03:00;7.93;;;1.75;;
57947;SDS011;43754;56.992;24.292;2022-09-16T00:05:33;6.95;;;1.55;;
57947;SDS011;43754;56.992;24.292;2022-09-16T00:08:10;5.88;;;1.30;;
57947;SDS011;43754;56.992;24.292;2022-09-16T00:10:42;3.90;;;1.48;;
57947;SDS011;43754;56.992;24.292;2022-09-16T00:13:14;10.60;;;1.55;;
57947;SDS011;43754;56.992;24.292;2022-09-16T00:15:48;6.30;;;1.40;;
57947;SDS011;43754;56.992;24.292;2022-09-16T00:18:23;7.85;;;1.42;;
57947;SDS011;43754;56.992;24.292;2022-09-16T00:20:57;8.65;;;1.50;;
57947;SDS011;43754;56.992;24.292;2022-09-16T00:23:29;3.35;;;1.23;;
57947;SDS011;43754;56.992;24.292;2022-09-16T00:26:01;4.72;;;1.05;;
57947;SDS011;43754;56.992;24.292;2022-09-16T00:28:34;8.90;;;2.28;;
57947;SDS011;43754;56.992;24.292;2022-09-16T00:31:06;8.55;;;1.60;;
57947;SDS011;43754;56.992;24.292;2022-09-16T00:33:38;5.72;;;1.33;;
57947;SDS011;43754;56.992;24.292;2022-09-16T00:36:12;5.15;;;1.50;;
57947;SDS011;43754;56.992;24.292;2022-09-16T00:38:48;5.32;;;2.03;;
57947;SDS011;43754;56.992;24.292;2022-09-16T00:41:22;6.88;;;1.77;;
57947;SDS011;43754;56.992;24.292;2022-09-16T00:43:57;6.20;;;1.60;;
57947;SDS011;43754;56.992;24.292;2022-09-16T00:46:31;4.78;;;1.25;;
57947;SDS011;43754;56.992;24.292;2022-09-16T00:49:09;4.32;;;1.98;;
57947;SDS011;43754;56.992;24.292;2022-09-16T00:51:47;7.30;;;2.10;;
57947;SDS011;43754;56.992;24.292;2022-09-16T00:54:22;6.22;;;2.20;;
57947;SDS011;43754;56.992;24.292;2022-09-16T00:56:56;9.65;;;2.42;;
57947;SDS011;43754;56.992;24.292;2022-09-16T00:59:30;10.30;;;2.20;;
57947;SDS011;43754;56.992;24.292;2022-09-16T01:02:06;9.73;;;2.10;;
57947;SDS011;43754;56.992;24.292;2022-09-16T01:04:41;4.53;;;1.65;;
57947;SDS011;43754;56.992;24.292;2022-09-16T01:07:22;7.07;;;1.70;;
57947;SDS011;43754;56.992;24.292;2022-09-16T01:10:00;7.18;;;1.90;;
57947;SDS011;43754;56.992;24.292;2022-09-16T01:12:32;5.65;;;1.85;;
57947;SDS011;43754;56.992;24.292;2022-09-16T01:15:05;5.13;;;1.55;;
57947;SDS011;43754;56.992;24.292;2022-09-16T01:20:58;5.45;;;1.60;;
57947;SDS011;43754;56.992;24.292;2022-09-16T01:26:52;10.23;;;1.88;;
57947;SDS011;43754;56.992;24.292;2022-09-16T01:29:57;4.65;;;2.13;;
57947;SDS011;43754;56.992;24.292;2022-09-16T01:32:40;8.30;;;1.15;;
57947;SDS011;43754;56.992;24.292;2022-09-16T01:35:26;5.35;;;1.48;;
57947;SDS011;43754;56.992;24.292;2022-09-16T01:38:08;9.05;;;1.67;;
57947;SDS011;43754;56.992;24.292;2022-09-16T01:40:51;6.35;;;1.40;;
57947;SDS011;43754;56.992;24.292;2022-09-16T01:43:31;5.45;;;1.60;;
57947;SDS011;43754;56.992;24.292;2022-09-16T01:46:16;4.97;;;1.52;;
57947;SDS011;43754;56.992;24.292;2022-09-16T01:48:54;6.25;;;1.45;;
57947;SDS011;43754;56.992;24.292;2022-09-16T01:51:33;7.30;;;1.83;;
57947;SDS011;43754;56.992;24.292;2022-09-16T01:54:14;6.05;;;1.80;;
57947;SDS011;43754;56.992;24.292;2022-09-16T01:56:52;3.97;;;1.70;;
57947;SDS011;43754;56.992;24.292;2022-09-16T01:59:32;8.30;;;2.00;;
57947;SDS011;43754;56.992;24.292;2022-09-16T02:02:08;3.63;;;1.75;;
57947;SDS011;43754;56.992;24.292;2022-09-16T02:04:50;6.20;;;1.45;;
57947;SDS011;43754;56.992;24.292;2022-09-16T02:07:26;4.07;;;1.40;;
57947;SDS011;43754;56.992;24.292;2022-09-16T02:10:04;9.65;;;1.70;;
57947;SDS011;43754;56.992;24.292;2022-09-16T02:12:41;4.40;;;1.48;;
57947;SDS011;43754;56.992;24.292;2022-09-16T02:15:15;3.38;;;1.33;;
57947;SDS011;43754;56.992;24.292;2022-09-16T02:17:55;5.60;;;1.60;;
57947;SDS011;43754;56.992;24.292;2022-09-16T02:20:34;5.13;;;1.42;;
57947;SDS011;43754;56.992;24.292;2022-09-16T02:23:11;5.32;;;1.13;;
57947;SDS011;43754;56.992;24.292;2022-09-16T02:25:47;9.32;;;1.48;;
57947;SDS011;43754;56.992;24.292;2022-09-16T02:28:22;8.50;;;1.33;;
57947;SDS011;43754;56.992;24.292;2022-09-16T02:30:59;3.63;;;1.17;;
57947;SDS011;43754;56.992;24.292;2022-09-16T02:33:37;4.82;;;1.00;;
57947;SDS011;43754;56.992;24.292;2022-09-16T02:36:18;6.80;;;1.60;;
57947;SDS011;43754;56.992;24.292;2022-09-16T02:38:54;4.47;;;1.33;;
57947;SDS011;43754;56.992;24.292;2022-09-16T02:41:28;4.68;;;1.50;;
57947;SDS011;43754;56.992;24.292;2022-09-16T02:44:00;3.35;;;1.45;;
57947;SDS011;43754;56.992;24.292;2022-09-16T02:46:36;5.82;;;1.25;;
57947;SDS011;43754;56.992;24.292;2022-09-16T02:49:11;7.88;;;1.10;;
57947;SDS011;43754;56.992;24.292;2022-09-16T02:51:51;4.10;;;1.33;;
57947;SDS011;43754;56.992;24.292;2022-09-16T02:54:31;4.75;;;1.23;;
57947;SDS011;43754;56.992;24.292;2022-09-16T02:57:07;8.57;;;1.80;;
57947;SDS011;43754;56.992;24.292;2022-09-16T02:59:40;5.78;;;1.73;;
57947;SDS011;43754;56.992;24.292;2022-09-16T03:02:12;5.03;;;1.40;;
57947;SDS011;43754;56.992;24.292;2022-09-16T03:04:44;2.88;;;0.98;;
57947;SDS011;43754;56.992;24.292;2022-09-16T03:07:18;3.55;;;1.13;;
57947;SDS011;43754;56.992;24.292;2022-09-16T03:09:50;4.75;;;1.05;;
57947;SDS011;43754;56.992;24.292;2022-09-16T03:12:25;4.07;;;1.23;;
57947;SDS011;43754;56.992;24.292;2022-09-16T03:15:17;3.50;;;1.20;;
57947;SDS011;43754;56.992;24.292;2022-09-16T03:18:08;4.80;;;1.10;;
57947;SDS011;43754;56.992;24.292;2022-09-16T03:20:54;3.40;;;1.05;;
57947;SDS011;43754;56.992;24.292;2022-09-16T03:23:35;6.88;;;1.10;;
57947;SDS011;43754;56.992;24.292;2022-09-16T03:26:20;4.40;;;1.13;;
57947;SDS011;43754;56.992;24.292;2022-09-16T03:29:00;5.13;;;1.48;;
57947;SDS011;43754;56.992;24.292;2022-09-16T03:31:39;6.63;;;1.40;;
57947;SDS011;43754;56.992;24.292;2022-09-16T03:36:55;4.75;;;1.10;;
57947;SDS011;43754;56.992;24.292;2022-09-16T03:39:33;8.32;;;1.42;;
57947;SDS011;43754;56.992;24.292;2022-09-16T03:42:06;5.70;;;1.42;;
57947;SDS011;43754;56.992;24.292;2022-09-16T03:44:41;5.30;;;1.42;;
57947;SDS011;43754;56.992;24.292;2022-09-16T03:47:13;6.65;;;1.05;;
57947;SDS011;43754;56.992;24.292;2022-09-16T03:49:46;4.22;;;1.88;;
57947;SDS011;43754;56.992;24.292;2022-09-16T03:52:18;6.70;;;1.45;;
57947;SDS011;43754;56.992;24.292;2022-09-16T03:54:51;4.65;;;1.45;;
57947;SDS011;43754;56.992;24.292;2022-09-16T03:57:23;7.55;;;2.05;;
57947;SDS011;43754;56.992;24.292;2022-09-16T03:59:58;4.05;;;1.00;;
57947;SDS011;43754;56.992;24.292;2022-09-16T04:02:30;4.55;;;1.10;;
57947;SDS011;43754;56.992;24.292;2022-09-16T04:05:02;2.15;;;1.00;;
57947;SDS011;43754;56.992;24.292;2022-09-16T04:07:34;7.82;;;0.90;;
57947;SDS011;43754;56.992;24.292;2022-09-16T04:10:08;5.78;;;1.48;;
57947;SDS011;43754;56.992;24.292;2022-09-16T04:12:43;3.22;;;0.80;;
57947;SDS011;43754;56.992;24.292;2022-09-16T04:15:15;2.28;;;0.80;;
57947;SDS011;43754;56.992;24.292;2022-09-16T04:17:47;3.33;;;0.63;;
57947;SDS011;43754;56.992;24.292;2022-09-16T04:20:19;2.63;;;0.93;;
57947;SDS011;43754;56.992;24.292;2022-09-16T04:22:51;5.07;;;0.90;;
57947;SDS011;43754;56.992;24.292;2022-09-16T04:25:25;3.30;;;1.00;;
57947;SDS011;43754;56.992;24.292;2022-09-16T04:27:57;2.53;;;1.00;;
57947;SDS011;43754;56.992;24.292;2022-09-16T04:30:29;4.15;;;1.08;;
57947;SDS011;43754;56.992;24.292;2022-09-16T04:33:01;7.47;;;1.08;;
57947;SDS011;43754;56.992;24.292;2022-09-16T04:35:33;3.40;;;0.98;;
57947;SDS011;43754;56.992;24.292;2022-09-16T04:38:05;4.00;;;1.27;;
57947;SDS011;43754;56.992;24.292;2022-09-16T04:40:38;3.50;;;1.30;;
57947;SDS011;43754;56.992;24.292;2022-09-16T04:43:10;2.22;;;1.05;;
57947;SDS011;43754;56.992;24.292;2022-09-16T04:45:43;5.78;;;1.25;;
57947;SDS011;43754;56.992;24.292;2022-09-16T04:48:15;5.65;;;1.48;;
57947;SDS011;43754;56.992;24.292;2022-09-16T04:50:48;5.05;;;1.02;;
57947;SDS011;43754;56.992;24.292;2022-09-16T04:53:20;4.15;;;1.27;;
57947;SDS011;43754;56.992;24.292;2022-09-16T04:56:00;3.80;;;1.13;;
57947;SDS011;43754;56.992;24.292;2022-09-16T04:58:33;3.97;;;0.95;;
57947;SDS011;43754;56.992;24.292;2022-09-16T05:01:06;5.63;;;1.20;;
57947;SDS011;43754;56.992;24.292;2022-09-16T05:03:43;3.95;;;1.00;;
57947;SDS011;43754;56.992;24.292;2022-09-16T05:06:17;5.22;;;1.10;;
57947;SDS011;43754;56.992;24.292;2022-09-16T05:08:51;5.95;;;1.35;;
57947;SDS011;43754;56.992;24.292;2022-09-16T05:11:26;5.07;;;1.45;;
57947;SDS011;43754;56.992;24.292;2022-09-16T05:14:00;5.10;;;1.38;;
57947;SDS011;43754;56.992;24.292;2022-09-16T05:16:33;6.55;;;1.23;;
57947;SDS011;43754;56.992;24.292;2022-09-16T05:19:06;4.13;;;1.35;;
57947;SDS011;43754;56.992;24.292;2022-09-16T05:21:38;4.85;;;1.33;;
57947;SDS011;43754;56.992;24.292;2022-09-16T05:24:11;6.03;;;1.20;;
57947;SDS011;43754;56.992;24.292;2022-09-16T05:26:45;5.03;;;1.17;;
57947;SDS011;43754;56.992;24.292;2022-09-16T05:29:17;5.47;;;1.30;;
57947;SDS011;43754;56.992;24.292;2022-09-16T05:31:49;2.08;;;0.80;;
57947;SDS011;43754;56.992;24.292;2022-09-16T05:34:21;2.90;;;0.93;;
57947;SDS011;43754;56.992;24.292;2022-09-16T05:36:59;4.57;;;1.08;;
57947;SDS011;43754;56.992;24.292;2022-09-16T05:39:31;7.75;;;0.88;;
57947;SDS011;43754;56.992;24.292;2022-09-16T05:42:04;3.92;;;0.82;;
57947;SDS011;43754;56.992;24.292;2022-09-16T05:44:36;5.55;;;1.25;;
57947;SDS011;43754;56.992;24.292;2022-09-16T05:47:08;3.70;;;1.15;;
57947;SDS011;43754;56.992;24.292;2022-09-16T05:49:40;2.53;;;1.00;;
57947;SDS011;43754;56.992;24.292;2022-09-16T05:52:12;4.32;;;1.05;;
57947;SDS011;43754;56.992;24.292;2022-09-16T05:54:44;4.30;;;1.10;;
57947;SDS011;43754;56.992;24.292;2022-09-16T05:57:18;4.43;;;0.82;;
57947;SDS011;43754;56.992;24.292;2022-09-16T05:59:52;2.97;;;1.15;;
57947;SDS011;43754;56.992;24.292;2022-09-16T06:02:23;1.58;;;0.73;;
57947;SDS011;43754;56.992;24.292;2022-09-16T06:04:56;2.72;;;0.77;;
57947;SDS011;43754;56.992;24.292;2022-09-16T06:07:29;3.95;;;1.10;;
57947;SDS011;43754;56.992;24.292;2022-09-16T06:10:01;3.15;;;1.02;;
57947;SDS011;43754;56.992;24.292;2022-09-16T06:12:34;3.88;;;1.00;;
57947;SDS011;43754;56.992;24.292;2022-09-16T06:15:07;4.55;;;1.00;;
57947;SDS011;43754;56.992;24.292;2022-09-16T06:17:40;3.10;;;1.00;;
57947;SDS011;43754;56.992;24.292;2022-09-16T06:20:12;3.95;;;1.60;;
57947;SDS011;43754;56.992;24.292;2022-09-16T06:22:45;6.60;;;2.55;;
57947;SDS011;43754;56.992;24.292;2022-09-16T06:25:17;3.92;;;1.73;;
57947;SDS011;43754;56.992;24.292;2022-09-16T06:27:50;4.30;;;1.42;;
57947;SDS011;43754;56.992;24.292;2022-09-16T06:30:22;6.45;;;2.67;;
57947;SDS011;43754;56.992;24.292;2022-09-16T06:32:59;10.35;;;4.10;;
57947;SDS011;43754;56.992;24.292;2022-09-16T06:35:32;7.68;;;1.67;;
57947;SDS011;43754;56.992;24.292;2022-09-16T06:38:05;3.10;;;1.08;;
57947;SDS011;43754;56.992;24.292;2022-09-16T06:40:37;1.73;;;1.00;;
57947;SDS011;43754;56.992;24.292;2022-09-16T06:43:10;3.63;;;1.17;;
57947;SDS011;43754;56.992;24.292;2022-09-16T06:45:42;4.25;;;1.13;;
57947;SDS011;43754;56.992;24.292;2022-09-16T06:48:14;5.80;;;1.20;;
57947;SDS011;43754;56.992;24.292;2022-09-16T06:50:46;4.47;;;1.60;;
57947;SDS011;43754;56.992;24.292;2022-09-16T06:53:18;3.83;;;1.08;;
57947;SDS011;43754;56.992;24.292;2022-09-16T06:55:50;5.18;;;1.17;;
57947;SDS011;43754;56.992;24.292;2022-09-16T06:58:24;3.78;;;1.65;;
57947;SDS011;43754;56.992;24.292;2022-09-16T07:00:56;3.55;;;1.60;;
57947;SDS011;43754;56.992;24.292;2022-09-16T07:03:28;4.30;;;1.38;;
57947;SDS011;43754;56.992;24.292;2022-09-16T07:06:00;3.00;;;1.08;;
57947;SDS011;43754;56.992;24.292;2022-09-16T07:08:33;5.07;;;1.92;;
57947;SDS011;43754;56.992;24.292;2022-09-16T07:11:07;3.88;;;1.17;;
57947;SDS011;43754;56.992;24.292;2022-09-16T07:13:43;5.43;;;1.20;;
57947;SDS011;43754;56.992;24.292;2022-09-16T07:16:18;4.22;;;1.33;;
57947;SDS011;43754;56.992;24.292;2022-09-16T07:18:52;1.52;;;0.98;;
57947;SDS011;43754;56.992;24.292;2022-09-16T07:21:31;2.47;;;1.05;;
57947;SDS011;43754;56.992;24.292;2022-09-16T07:24:03;2.92;;;1.05;;
57947;SDS011;43754;56.992;24.292;2022-09-16T07:26:35;3.47;;;1.08;;
57947;SDS011;43754;56.992;24.292;2022-09-16T07:29:12;8.63;;;1.85;;
57947;SDS011;43754;56.992;24.292;2022-09-16T07:31:46;3.35;;;1.25;;
57947;SDS011;43754;56.992;24.292;2022-09-16T07:34:18;2.83;;;1.30;;
57947;SDS011;43754;56.992;24.292;2022-09-16T07:36:50;2.70;;;1.08;;
57947;SDS011;43754;56.992;24.292;2022-09-16T07:39:23;3.15;;;1.15;;
57947;SDS011;43754;56.992;24.292;2022-09-16T07:41:56;5.85;;;0.63;;
57947;SDS011;43754;56.992;24.292;2022-09-16T07:44:33;4.05;;;1.25;;
57947;SDS011;43754;56.992;24.292;2022-09-16T07:47:05;4.28;;;1.83;;
57947;SDS011;43754;56.992;24.292;2022-09-16T07:49:37;2.28;;;1.00;;
57947;SDS011;43754;56.992;24.292;2022-09-16T07:52:09;1.42;;;0.70;;
57947;SDS011;43754;56.992;24.292;2022-09-16T07:54:41;2.55;;;0.70;;
57947;SDS011;43754;56.992;24.292;2022-09-16T07:57:13;2.35;;;0.73;;
57947;SDS011;43754;56.992;24.292;2022-09-16T07:59:47;2.92;;;0.80;;
57947;SDS011;43754;56.992;24.292;2022-09-16T08:02:19;3.55;;;0.85;;
57947;SDS011;43754;56.992;24.292;2022-09-16T08:04:51;5.45;;;1.02;;
57947;SDS011;43754;56.992;24.292;2022-09-16T08:07:23;2.30;;;0.98;;
57947;SDS011;43754;56.992;24.292;2022-09-16T08:09:55;2.58;;;0.75;;
57947;SDS011;43754;56.992;24.292;2022-09-16T08:12:27;4.75;;;1.00;;
57947;SDS011;43754;56.992;24.292;2022-09-16T08:15:06;4.40;;;0.90;;
57947;SDS011;43754;56.992;24.292;2022-09-16T08:17:39;1.83;;;0.80;;
57947;SDS011;43754;56.992;24.292;2022-09-16T08:20:11;1.58;;;0.90;;
57947;SDS011;43754;56.992;24.292;2022-09-16T08:22:43;3.80;;;1.80;;
57947;SDS011;43754;56.992;24.292;2022-09-16T08:25:15;4.35;;;0.80;;
57947;SDS011;43754;56.992;24.292;2022-09-16T08:27:47;1.58;;;0.70;;
57947;SDS011;43754;56.992;24.292;2022-09-16T08:30:27;1.88;;;0.77;;
57947;SDS011;43754;56.992;24.292;2022-09-16T08:32:59;2.05;;;0.80;;
57947;SDS011;43754;56.992;24.292;2022-09-16T08:35:31;2.65;;;1.10;;
57947;SDS011;43754;56.992;24.292;2022-09-16T08:38:03;2.38;;;1.05;;
57947;SDS011;43754;56.992;24.292;2022-09-16T08:40:36;1.20;;;0.70;;
57947;SDS011;43754;56.992;24.292;2022-09-16T08:43:09;3.53;;;1.00;;
57947;SDS011;43754;56.992;24.292;2022-09-16T08:45:49;2.88;;;0.80;;
57947;SDS011;43754;56.992;24.292;2022-09-16T08:48:27;3.97;;;0.75;;
57947;SDS011;43754;56.992;24.292;2022-09-16T08:51:06;1.17;;;0.55;;
57947;SDS011;43754;56.992;24.292;2022-09-16T08:53:44;3.92;;;1.30;;
57947;SDS011;43754;56.992;24.292;2022-09-16T08:56:20;2.08;;;0.80;;
57947;SDS011;43754;56.992;24.292;2022-09-16T08:58:55;4.32;;;0.80;;
57947;SDS011;43754;56.992;24.292;2022-09-16T09:01:33;1.58;;;0.63;;
57947;SDS011;43754;56.992;24.292;2022-09-16T09:04:10;1.70;;;0.50;;
57947;SDS011;43754;56.992;24.292;2022-09-16T09:06:46;6.32;;;0.75;;
57947;SDS011;43754;56.992;24.292;2022-09-16T09:09:33;3.38;;;0.70;;
57947;SDS011;43754;56.992;24.292;2022-09-16T09:12:21;1.07;;;0.60;;
57947;SDS011;43754;56.992;24.292;2022-09-16T09:15:06;3.42;;;1.35;;
57947;SDS011;43754;56.992;24.292;2022-09-16T09:18:03;4.60;;;0.70;;
57947;SDS011;43754;56.992;24.292;2022-09-16T09:20:49;1.42;;;0.75;;
57947;SDS011;43754;56.992;24.292;2022-09-16T09:23:32;2.63;;;1.02;;
57947;SDS011;43754;56.992;24.292;2022-09-16T09:26:16;1.17;;;0.52;;
57947;SDS011;43754;56.992;24.292;2022-09-16T09:28:58;4.85;;;1.08;;
57947;SDS011;43754;56.992;24.292;2022-09-16T09:31:42;2.30;;;0.50;;
57947;SDS011;43754;56.992;24.292;2022-09-16T09:34:27;2.92;;;0.60;;
57947;SDS011;43754;56.992;24.292;2022-09-16T09:37:16;4.20;;;0.87;;
57947;SDS011;43754;56.992;24.292;2022-09-16T09:40:03;3.00;;;0.68;;
57947;SDS011;43754;56.992;24.292;2022-09-16T09:42:43;4.47;;;1.13;;
57947;SDS011;43754;56.992;24.292;2022-09-16T09:45:22;4.30;;;0.90;;
57947;SDS011;43754;56.992;24.292;2022-09-16T09:48:00;3.78;;;1.10;;
57947;SDS011;43754;56.992;24.292;2022-09-16T09:50:39;2.03;;;0.65;;
57947;SDS011;43754;56.992;24.292;2022-09-16T09:53:16;3.30;;;0.70;;
57947;SDS011;43754;56.992;24.292;2022-09-16T09:55:56;4.55;;;0.70;;
57947;SDS011;43754;56.992;24.292;2022-09-16T09:58:31;4.15;;;0.82;;
57947;SDS011;43754;56.992;24.292;2022-09-16T10:01:07;2.45;;;0.65;;
57947;SDS011;43754;56.992;24.292;2022-09-16T10:03:41;8.50;;;0.73;;
57947;SDS011;43754;56.992;24.292;2022-09-16T10:06:17;3.28;;;0.70;;
57947;SDS011;43754;56.992;24.292;2022-09-16T10:08:56;1.13;;;0.70;;
57947;SDS011;43754;56.992;24.292;2022-09-16T10:11:30;1.73;;;0.65;;
57947;SDS011;43754;56.992;24.292;2022-09-16T10:14:03;3.15;;;0.50;;
57947;SDS011;43754;56.992;24.292;2022-09-16T10:16:36;4.45;;;1.10;;
57947;SDS011;43754;56.992;24.292;2022-09-16T10:19:15;1.27;;;0.47;;
57947;SDS011;43754;56.992;24.292;2022-09-16T10:21:51;7.47;;;0.98;;
57947;SDS011;43754;56.992;24.292;2022-09-16T10:24:34;5.78;;;0.40;;
57947;SDS011;43754;56.992;24.292;2022-09-16T10:27:19;2.08;;;0.80;;
57947;SDS011;43754;56.992;24.292;2022-09-16T10:30:03;3.50;;;0.60;;
57947;SDS011;43754;56.992;24.292;2022-09-16T10:32:38;5.45;;;0.73;;
57947;SDS011;43754;56.992;24.292;2022-09-16T10:35:18;1.95;;;0.70;;
57947;SDS011;43754;56.992;24.292;2022-09-16T10:37:55;2.33;;;1.15;;
57947;SDS011;43754;56.992;24.292;2022-09-16T10:40:29;4.90;;;0.60;;
57947;SDS011;43754;56.992;24.292;2022-09-16T10:43:03;3.50;;;1.17;;
57947;SDS011;43754;56.992;24.292;2022-09-16T10:45:44;2.70;;;0.88;;
57947;SDS011;43754;56.992;24.292;2022-09-16T10:48:19;4.15;;;1.13;;
57947;SDS011;43754;56.992;24.292;2022-09-16T10:50:56;5.88;;;1.05;;
57947;SDS011;43754;56.992;24.292;2022-09-16T10:53:32;3.78;;;1.13;;
57947;SDS011;43754;56.992;24.292;2022-09-16T10:56:15;1.63;;;0.70;;
57947;SDS011;43754;56.992;24.292;2022-09-16T10:58:59;3.67;;;0.75;;
57947;SDS011;43754;56.992;24.292;2022-09-16T11:01:36;1.88;;;0.63;;
57947;SDS011;43754;56.992;24.292;2022-09-16T11:07:33;3.35;;;0.90;;
57947;SDS011;43754;56.992;24.292;2022-09-16T11:10:16;2.55;;;0.60;;
57947;SDS011;43754;56.992;24.292;2022-09-16T11:13:12;3.28;;;1.00;;
57947;SDS011;43754;56.992;24.292;2022-09-16T11:15:59;5.55;;;1.35;;
57947;SDS011;43754;56.992;24.292;2022-09-16T11:18:46;4.78;;;0.77;;
57947;SDS011;43754;56.992;24.292;2022-09-16T11:21:33;4.00;;;0.85;;
57947;SDS011;43754;56.992;24.292;2022-09-16T11:24:43;3.40;;;1.00;;
57947;SDS011;43754;56.992;24.292;2022-09-16T11:27:29;3.97;;;1.00;;
57947;SDS011;43754;56.992;24.292;2022-09-16T11:30:12;2.78;;;0.93;;
57947;SDS011;43754;56.992;24.292;2022-09-16T11:38:57;3.47;;;1.20;;
57947;SDS011;43754;56.992;24.292;2022-09-16T11:41:38;3.35;;;0.98;;
57947;SDS011;43754;56.992;24.292;2022-09-16T11:44:21;4.05;;;0.88;;
57947;SDS011;43754;56.992;24.292;2022-09-16T11:47:06;2.63;;;0.70;;
57947;SDS011;43754;56.992;24.292;2022-09-16T11:49:53;6.00;;;0.70;;
57947;SDS011;43754;56.992;24.292;2022-09-16T11:52:38;1.85;;;0.50;;
57947;SDS011;43754;56.992;24.292;2022-09-16T11:55:22;1.45;;;0.57;;
57947;SDS011;43754;56.992;24.292;2022-09-16T11:58:04;2.97;;;0.70;;
57947;SDS011;43754;56.992;24.292;2022-09-16T12:00:47;4.13;;;0.60;;
57947;SDS011;43754;56.992;24.292;2022-09-16T12:03:24;5.10;;;0.70;;
57947;SDS011;43754;56.992;24.292;2022-09-16T12:06:02;1.23;;;0.40;;
57947;SDS011;43754;56.992;24.292;2022-09-16T12:08:43;2.42;;;0.60;;
57947;SDS011;43754;56.992;24.292;2022-09-16T12:11:23;1.13;;;0.50;;
57947;SDS011;43754;56.992;24.292;2022-09-16T12:14:05;2.60;;;0.35;;
57947;SDS011;43754;56.992;24.292;2022-09-16T12:16:44;2.55;;;0.43;;
57947;SDS011;43754;56.992;24.292;2022-09-16T12:19:24;1.50;;;0.50;;
57947;SDS011;43754;56.992;24.292;2022-09-16T12:22:03;4.28;;;0.68;;
57947;SDS011;43754;56.992;24.292;2022-09-16T12:24:40;2.13;;;0.70;;
57947;SDS011;43754;56.992;24.292;2022-09-16T12:27:24;2.80;;;0.55;;
57947;SDS011;43754;56.992;24.292;2022-09-16T12:30:11;3.10;;;0.93;;
57947;SDS011;43754;56.992;24.292;2022-09-16T12:32:49;2.35;;;0.82;;
57947;SDS011;43754;56.992;24.292;2022-09-16T12:35:29;2.47;;;0.77;;
57947;SDS011;43754;56.992;24.292;2022-09-16T12:38:05;3.35;;;0.63;;
57947;SDS011;43754;56.992;24.292;2022-09-16T12:40:51;3.88;;;0.68;;
57947;SDS011;43754;56.992;24.292;2022-09-16T12:43:41;1.90;;;0.70;;
57947;SDS011;43754;56.992;24.292;2022-09-16T12:46:57;1.98;;;0.50;;
57947;SDS011;43754;56.992;24.292;2022-09-16T12:55:42;3.80;;;0.68;;
57947;SDS011;43754;56.992;24.292;2022-09-16T12:58:32;3.17;;;0.68;;
57947;SDS011;43754;56.992;24.292;2022-09-16T13:01:17;2.88;;;0.90;;
57947;SDS011;43754;56.992;24.292;2022-09-16T13:03:54;3.20;;;0.80;;
57947;SDS011;43754;56.992;24.292;2022-09-16T13:06:33;3.17;;;0.80;;
57947;SDS011;43754;56.992;24.292;2022-09-16T13:09:13;3.08;;;0.70;;
57947;SDS011;43754;56.992;24.292;2022-09-16T13:11:52;3.85;;;1.08;;
57947;SDS011;43754;56.992;24.292;2022-09-16T13:14:48;3.78;;;1.10;;
57947;SDS011;43754;56.992;24.292;2022-09-16T13:17:26;6.90;;;3.05;;
57947;SDS011;43754;56.992;24.292;2022-09-16T13:20:01;2.85;;;0.90;;
57947;SDS011;43754;56.992;24.292;2022-09-16T13:22:44;3.55;;;0.75;;
57947;SDS011;43754;56.992;24.292;2022-09-16T13:25:20;12.45;;;1.23;;
57947;SDS011;43754;56.992;24.292;2022-09-16T13:27:55;1.00;;;0.70;;
57947;SDS011;43754;56.992;24.292;2022-09-16T13:30:33;2.65;;;0.30;;
57947;SDS011;43754;56.992;24.292;2022-09-16T13:33:26;3.05;;;1.23;;
57947;SDS011;43754;56.992;24.292;2022-09-16T13:39:04;6.18;;;0.85;;
57947;SDS011;43754;56.992;24.292;2022-09-16T13:41:42;1.70;;;0.40;;
57947;SDS011;43754;56.992;24.292;2022-09-16T13:47:13;5.40;;;0.50;;
57947;SDS011;43754;56.992;24.292;2022-09-16T13:49:48;1.77;;;0.38;;
57947;SDS011;43754;56.992;24.292;2022-09-16T13:52:23;2.05;;;0.40;;
57947;SDS011;43754;56.992;24.292;2022-09-16T13:55:00;2.95;;;0.60;;
57947;SDS011;43754;56.992;24.292;2022-09-16T13:57:57;3.13;;;0.95;;
57947;SDS011;43754;56.992;24.292;2022-09-16T14:00:33;4.00;;;0.90;;
57947;SDS011;43754;56.992;24.292;2022-09-16T14:03:22;4.07;;;0.80;;
57947;SDS011;43754;56.992;24.292;2022-09-16T14:06:21;4.50;;;1.35;;
57947;SDS011;43754;56.992;24.292;2022-09-16T14:09:27;5.13;;;1.40;;
57947;SDS011;43754;56.992;24.292;2022-09-16T14:12:09;5.88;;;2.70;;
57947;SDS011;43754;56.992;24.292;2022-09-16T14:14:47;9.38;;;4.90;;
57947;SDS011;43754;56.992;24.292;2022-09-16T14:17:21;7.07;;;3.30;;
57947;SDS011;43754;56.992;24.292;2022-09-16T14:19:55;4.75;;;2.15;;
57947;SDS011;43754;56.992;24.292;2022-09-16T14:22:29;4.70;;;2.35;;
57947;SDS011;43754;56.992;24.292;2022-09-16T14:25:02;3.42;;;1.75;;
57947;SDS011;43754;56.992;24.292;2022-09-16T14:28:07;4.97;;;1.75;;
57947;SDS011;43754;56.992;24.292;2022-09-16T14:30:49;5.82;;;1.85;;
57947;SDS011;43754;56.992;24.292;2022-09-16T14:33:24;2.45;;;1.02;;
57947;SDS011;43754;56.992;24.292;2022-09-16T14:36:00;9.98;;;1.20;;
57947;SDS011;43754;56.992;24.292;2022-09-16T14:38:41;4.97;;;1.20;;
57947;SDS011;43754;56.992;24.292;2022-09-16T14:41:20;4.28;;;1.13;;
57947;SDS011;43754;56.992;24.292;2022-09-16T14:43:56;5.20;;;1.15;;
57947;SDS011;43754;56.992;24.292;2022-09-16T14:46:38;4.95;;;1.80;;
57947;SDS011;43754;56.992;24.292;2022-09-16T14:49:12;4.57;;;1.48;;
57947;SDS011;43754;56.992;24.292;2022-09-16T14:51:47;9.32;;;2.10;;
57947;SDS011;43754;56.992;24.292;2022-09-16T14:54:23;7.32;;;2.25;;
57947;SDS011;43754;56.992;24.292;2022-09-16T14:56:57;5.05;;;2.15;;
57947;SDS011;43754;56.992;24.292;2022-09-16T14:59:32;5.55;;;1.85;;
57947;SDS011;43754;56.992;24.292;2022-09-16T15:02:07;5.13;;;1.83;;
57947;SDS011;43754;56.992;24.292;2022-09-16T15:04:48;3.30;;;1.55;;
57947;SDS011;43754;56.992;24.292;2022-09-16T15:07:25;4.25;;;1.73;;
57947;SDS011;43754;56.992;24.292;2022-09-16T15:10:00;6.78;;;1.65;;
57947;SDS011;43754;56.992;24.292;2022-09-16T15:12:36;4.03;;;1.52;;
57947;SDS011;43754;56.992;24.292;2022-09-16T15:15:18;6.07;;;1.90;;
57947;SDS011;43754;56.992;24.292;2022-09-16T15:17:52;4.53;;;1.50;;
57947;SDS011;43754;56.992;24.292;2022-09-16T15:20:29;7.55;;;1.63;;
57947;SDS011;43754;56.992;24.292;2022-09-16T15:23:04;5.93;;;1.48;;
57947;SDS011;43754;56.992;24.292;2022-09-16T15:25:49;3.65;;;1.10;;
57947;SDS011;43754;56.992;24.292;2022-09-16T15:28:23;6.68;;;1.42;;
57947;SDS011;43754;56.992;24.292;2022-09-16T15:30:56;3.55;;;1.25;;
57947;SDS011;43754;56.992;24.292;2022-09-16T15:33:31;5.47;;;1.00;;
57947;SDS011;43754;56.992;24.292;2022-09-16T15:36:05;3.80;;;1.20;;
57947;SDS011;43754;56.992;24.292;2022-09-16T15:38:38;4.85;;;1.40;;
57947;SDS011;43754;56.992;24.292;2022-09-16T15:41:14;7.18;;;1.45;;
57947;SDS011;43754;56.992;24.292;2022-09-16T15:43:49;4.72;;;1.42;;
57947;SDS011;43754;56.992;24.292;2022-09-16T15:46:22;4.90;;;1.33;;
57947;SDS011;43754;56.992;24.292;2022-09-16T15:48:56;4.65;;;1.23;;
57947;SDS011;43754;56.992;24.292;2022-09-16T15:51:30;6.00;;;2.50;;
57947;SDS011;43754;56.992;24.292;2022-09-16T15:54:13;5.25;;;1.90;;
57947;SDS011;43754;56.992;24.292;2022-09-16T15:59:26;5.90;;;1.83;;
57947;SDS011;43754;56.992;24.292;2022-09-16T16:02:04;5.85;;;2.03;;
57947;SDS011;43754;56.992;24.292;2022-09-16T16:04:49;5.95;;;2.42;;